Time;durP1;ratioP1;P1;durP2;ratioP2;P2;SDS_P1;SDS_P2;PMS_P1;PMS_P2;Temp;Humidity;BMP_temperature;BMP_pressure;BME280_temperature;BME280_humidity;BME280_pressure;Samples;Min_cycle;Max_cycle;Signal;HPM_P1;HPM_P2
2023/06/23 00:00:13;;;;;;;;;8.33;8.00;;;;;21.31;56.81;101753.72;5057481;28;45401;-71
2023/06/23 00:02:39;;;;;;;;;7.00;7.00;;;;;21.48;56.77;101787.63;5039451;28;45384;-71
2023/06/23 00:05:07;;;;;;;;;8.33;8.33;;;;;21.35;56.92;101765.84;5057814;28;45315;-70
2023/06/23 00:07:33;;;;;;;;;6.67;6.67;;;;;21.49;56.50;101789.31;5057119;28;46378;-70
2023/06/23 00:09:58;;;;;;;;;10.33;6.33;;;;;21.40;56.88;101771.50;5057364;28;45274;-71
2023/06/23 00:12:24;;;;;;;;;9.67;7.67;;;;;21.41;56.89;101775.88;5038503;28;64132;-70
2023/06/23 00:14:49;;;;;;;;;9.33;7.33;;;;;21.37;57.06;101769.19;5057565;28;45179;-70
2023/06/23 00:17:15;;;;;;;;;10.00;8.67;;;;;21.33;56.60;101769.75;5039027;28;47682;-71
2023/06/23 00:19:41;;;;;;;;;7.00;7.00;;;;;21.35;57.09;101792.03;5057212;28;45483;-71
2023/06/23 00:22:06;;;;;;;;;8.33;7.00;;;;;21.00;57.17;101740.38;5057189;28;45225;-69
2023/06/23 00:24:32;;;;;;;;;8.33;8.33;;;;;20.99;57.27;101744.13;5057879;28;45265;-71
2023/06/23 00:26:57;;;;;;;;;10.33;8.33;;;;;21.29;57.44;101793.66;5039120;28;48783;-71
2023/06/23 00:29:23;;;;;;;;;9.00;9.00;;;;;21.29;57.68;101796.34;5057067;28;45187;-70
2023/06/23 00:31:49;;;;;;;;;8.00;8.00;;;;;21.28;57.34;101801.94;5057023;28;45661;-70
2023/06/23 00:34:15;;;;;;;;;10.00;8.00;;;;;21.25;57.12;101805.88;5057306;28;45431;-70
2023/06/23 00:36:41;;;;;;;;;8.33;8.33;;;;;21.17;57.53;101795.94;5056585;28;45602;-71
2023/06/23 00:39:08;;;;;;;;;6.33;6.33;;;;;21.11;57.07;101785.06;5056932;28;45498;-71
2023/06/23 00:41:34;;;;;;;;;7.67;7.67;;;;;21.15;57.27;101792.59;5057270;28;45209;-71
2023/06/23 00:43:59;;;;;;;;;12.00;9.67;;;;;21.14;57.33;101787.38;5057305;28;45395;-70
2023/06/23 00:46:26;;;;;;;;;7.67;6.00;;;;;21.11;57.89;101790.47;5056813;28;45955;-71
2023/06/23 00:48:52;;;;;;;;;7.33;5.33;;;;;21.09;57.59;101787.94;5056810;28;45221;-69
2023/06/23 00:51:17;;;;;;;;;7.00;7.00;;;;;21.07;57.67;101781.06;5057032;28;45451;-69
2023/06/23 00:53:48;;;;;;;;;6.00;6.00;;;;;21.08;57.90;101780.03;5057055;28;45241;-70
2023/06/23 00:56:15;;;;;;;;;7.00;5.67;;;;;21.02;58.29;101769.94;5059520;28;45730;-70
2023/06/23 00:58:41;;;;;;;;;7.00;7.00;;;;;21.10;58.00;101788.78;5060338;28;45534;-70
2023/06/23 01:01:08;;;;;;;;;8.67;8.33;;;;;21.08;58.06;101791.69;5060553;28;45353;-70
2023/06/23 01:03:35;;;;;;;;;8.33;7.33;;;;;20.99;58.16;101778.44;5042322;28;45387;-70
2023/06/23 01:06:12;;;;;;;;;9.00;5.67;;;;;21.05;58.35;101789.34;5060190;28;46381;-71
2023/06/23 01:08:52;;;;;;;;;9.67;9.67;;;;;21.02;58.58;101792.41;5059949;28;45499;-70
2023/06/23 01:11:28;;;;;;;;;8.67;7.33;;;;;20.91;58.90;101773.97;5042165;28;45411;-70
2023/06/23 01:14:11;;;;;;;;;10.33;7.33;;;;;20.99;58.63;101795.50;5060273;28;45462;-70
2023/06/23 01:16:47;;;;;;;;;12.00;8.00;;;;;20.58;58.94;101720.28;5060093;28;47164;-71
2023/06/23 01:19:33;;;;;;;;;12.67;10.00;;;;;20.98;59.03;101795.69;5042039;28;45477;-70
2023/06/23 01:22:09;;;;;;;;;8.33;8.00;;;;;20.91;59.31;101793.72;5059887;28;45435;-71
2023/06/23 01:24:55;;;;;;;;;10.67;8.33;;;;;20.93;59.46;101798.94;5060185;28;45508;-70
2023/06/23 01:27:39;;;;;;;;;9.33;8.00;;;;;20.91;59.22;101791.03;5059742;28;45701;-69
2023/06/23 01:30:10;;;;;;;;;7.67;7.67;;;;;20.67;59.26;101750.78;5059994;28;45463;-71
2023/06/23 01:32:43;;;;;;;;;7.00;6.00;;;;;20.88;59.18;101807.63;5060025;28;45510;-70
2023/06/23 01:35:18;;;;;;;;;9.67;9.67;;;;;20.91;59.24;101801.00;5060002;28;45306;-71
2023/06/23 01:37:47;;;;;;;;;7.67;7.67;;;;;20.80;58.94;101794.19;5059727;28;45946;-72
2023/06/23 01:40:17;;;;;;;;;9.33;9.33;;;;;20.87;58.96;101813.22;5059783;28;45242;-71
2023/06/23 01:42:50;;;;;;;;;13.67;7.67;;;;;20.88;58.90;101818.44;5059750;28;45321;-71
2023/06/23 01:45:17;;;;;;;;;8.33;8.33;;;;;20.83;58.91;101810.06;5059790;28;45316;-70
2023/06/23 01:47:48;;;;;;;;;8.00;7.00;;;;;20.73;58.69;101804.06;5059436;28;45845;-69
2023/06/23 01:50:16;;;;;;;;;9.00;6.67;;;;;20.76;58.84;101819.91;5059425;28;45363;-71
2023/06/23 01:52:43;;;;;;;;;13.67;11.33;;;;;20.68;58.78;101806.50;5059473;28;45387;-70
2023/06/23 01:55:10;;;;;;;;;7.00;6.00;;;;;20.80;58.97;101826.63;5059479;28;45496;-71
2023/06/23 01:57:38;;;;;;;;;10.00;8.00;;;;;20.70;59.26;101815.25;5059213;28;45719;-72
2023/06/23 02:00:13;;;;;;;;;10.33;6.00;;;;;20.74;59.06;101827.34;5059331;28;45498;-70
2023/06/23 02:02:45;;;;;;;;;8.33;8.33;;;;;20.76;59.44;101832.59;5042722;28;45352;-70
2023/06/23 02:05:13;;;;;;;;;10.67;9.00;;;;;20.75;59.39;101839.84;5059368;28;45287;-71
2023/06/23 02:07:42;;;;;;;;;9.67;8.00;;;;;20.73;59.37;101839.19;5058690;28;45976;-70
2023/06/23 02:10:09;;;;;;;;;6.67;6.67;;;;;20.73;59.19;101841.91;5059150;28;45339;-69
2023/06/23 02:12:37;;;;;;;;;8.67;7.00;;;;;20.70;59.28;101836.88;5058984;28;45310;-70
2023/06/23 02:15:06;;;;;;;;;10.00;8.00;;;;;20.69;59.04;101843.28;5059511;28;45486;-70
2023/06/23 02:17:33;;;;;;;;;7.00;7.00;;;;;20.68;59.12;101838.06;5040663;28;47837;-70
2023/06/23 02:20:05;;;;;;;;;8.33;5.67;;;;;20.31;59.09;101786.53;5059054;28;45480;-70
2023/06/23 02:22:32;;;;;;;;;12.33;9.33;;;;;20.25;59.18;101771.06;5058774;28;45356;-70
2023/06/23 02:24:59;;;;;;;;;11.00;9.67;;;;;20.61;58.95;101829.84;5059199;28;45344;-70
2023/06/23 02:27:25;;;;;;;;;6.33;6.33;;;;;20.26;58.90;101780.03;5058788;28;46740;-70
2023/06/23 02:29:53;;;;;;;;;11.33;10.67;;;;;20.58;59.00;101832.91;5058864;28;45461;-70
2023/06/23 02:32:18;;;;;;;;;7.00;4.33;;;;;20.19;58.98;101768.25;5058898;28;45309;-69
2023/06/23 02:34:46;;;;;;;;;9.00;8.00;;;;;20.59;59.15;101840.84;5059099;28;45408;-70
2023/06/23 02:37:12;;;;;;;;;5.67;5.67;;;;;20.51;58.69;101827.41;5058474;28;45808;-70
2023/06/23 02:39:42;;;;;;;;;8.33;5.67;;;;;20.54;59.06;101834.31;5040551;28;46301;-70
2023/06/23 02:42:12;;;;;;;;;6.00;6.00;;;;;20.17;58.74;101784.63;5058992;28;45230;-71
2023/06/23 02:44:42;;;;;;;;;7.33;5.67;;;;;20.47;58.53;101836.91;5059090;28;45510;-71
2023/06/23 02:47:13;;;;;;;;;7.33;6.00;;;;;20.17;58.63;101800.00;5058529;28;45448;-71
2023/06/23 02:49:40;;;;;;;;;6.00;6.00;;;;;20.46;58.73;101856.00;5041042;28;45461;-71
2023/06/23 02:52:09;;;;;;;;;7.00;6.33;;;;;20.45;58.77;101865.13;5040146;28;45345;-71
2023/06/23 02:54:40;;;;;;;;;5.00;5.00;;;;;20.43;58.25;101861.78;5058837;28;45261;-71
2023/06/23 02:57:11;;;;;;;;;5.33;5.00;;;;;20.40;58.67;101868.31;5058352;28;46880;-72
2023/06/23 02:59:39;;;;;;;;;10.33;7.00;;;;;20.39;58.83;101871.22;5040325;28;45549;-71
2023/06/23 03:02:07;;;;;;;;;6.33;5.33;;;;;20.38;58.90;101870.38;5058485;28;45234;-72
2023/06/23 03:04:34;;;;;;;;;10.67;5.33;;;;;20.35;59.20;101876.13;5058582;28;45234;-71
2023/06/23 03:07:01;;;;;;;;;5.00;4.67;;;;;20.37;59.39;101882.19;5058042;28;45902;-72
2023/06/23 03:09:26;;;;;;;;;7.67;7.33;;;;;20.31;59.61;101877.53;5058266;28;45467;-71
2023/06/23 03:11:52;;;;;;;;;6.33;5.67;;;;;20.24;59.44;101879.28;5058439;28;45385;-70
2023/06/23 03:14:17;;;;;;;;;7.00;7.00;;;;;20.20;59.73;101878.78;5058805;28;45598;-70
2023/06/23 03:16:59;;;;;;;;;6.00;6.00;;;;;19.64;59.70;101789.09;5058151;28;45620;-71
2023/06/23 03:19:27;;;;;;;;;8.67;8.00;;;;;20.20;59.65;101873.38;5057974;28;45451;-71
2023/06/23 03:22:00;;;;;;;;;7.33;6.00;;;;;20.14;59.74;101863.28;5058006;28;45487;-70
2023/06/23 03:24:30;;;;;;;;;6.33;6.33;;;;;20.20;59.68;101872.53;5058558;28;45546;-70
2023/06/23 03:26:58;;;;;;;;;6.00;6.00;;;;;20.19;59.63;101860.88;5058063;28;46179;-70
2023/06/23 03:29:28;;;;;;;;;9.33;7.67;;;;;20.10;59.82;101861.97;5058020;28;45262;-69
2023/06/23 03:31:58;;;;;;;;;9.67;7.33;;;;;20.02;59.67;101846.69;5058003;28;45278;-70
2023/06/23 03:34:31;;;;;;;;;6.67;6.67;;;;;19.95;59.78;101836.78;5058184;28;45567;-70
2023/06/23 03:36:59;;;;;;;;;8.67;6.33;;;;;20.14;59.86;101881.34;5057540;28;46213;-70
2023/06/23 03:39:28;;;;;;;;;11.33;8.00;;;;;20.10;59.90;101882.75;5057681;28;45502;-70
2023/06/23 03:41:55;;;;;;;;;8.33;7.33;;;;;20.01;60.13;101868.44;5057854;28;45490;-71
2023/06/23 03:44:35;;;;;;;;;7.67;7.67;;;;;20.11;60.37;101896.06;5057935;28;45222;-70
2023/06/23 03:47:06;;;;;;;;;7.33;6.00;;;;;20.04;60.07;101887.84;5057720;28;45692;-70
2023/06/23 03:49:39;;;;;;;;;7.67;7.67;;;;;20.04;59.81;101895.09;5057805;28;45459;-70
2023/06/23 03:52:07;;;;;;;;;9.00;8.00;;;;;20.01;60.12;101895.44;5057322;28;45373;-71
2023/06/23 03:54:33;;;;;;;;;7.00;7.00;;;;;20.06;60.14;101901.16;5057747;28;45289;-70
2023/06/23 03:57:02;;;;;;;;;9.00;9.00;;;;;20.00;60.28;101899.16;5039315;28;46261;-71
2023/06/23 03:59:29;;;;;;;;;6.67;6.67;;;;;20.01;60.33;101890.03;5057371;28;45292;-71
2023/06/23 04:01:57;;;;;;;;;11.67;8.00;;;;;19.92;60.46;101869.53;5057535;28;45237;-70
2023/06/23 04:04:24;;;;;;;;;12.67;12.33;;;;;19.99;60.44;101892.06;5057604;28;45221;-71
2023/06/23 04:06:53;;;;;;;;;9.67;9.67;;;;;19.99;60.54;101909.09;5056662;28;45802;-70
2023/06/23 04:09:20;;;;;;;;;9.00;8.00;;;;;19.60;60.65;101847.09;5057170;28;45348;-71
2023/06/23 04:11:47;;;;;;;;;9.67;9.67;;;;;20.00;60.82;101910.78;5057379;28;45369;-71
2023/06/23 04:14:14;;;;;;;;;10.33;10.33;;;;;20.03;60.45;101906.91;5039415;28;45498;-71
2023/06/23 04:16:42;;;;;;;;;9.00;8.67;;;;;20.01;60.69;101912.47;5057099;28;46048;-70
2023/06/23 04:19:10;;;;;;;;;10.67;10.67;;;;;20.03;60.98;101926.66;5057222;28;45305;-72
2023/06/23 04:21:37;;;;;;;;;8.00;8.00;;;;;20.01;60.75;101935.94;5057198;28;45341;-70
2023/06/23 04:24:06;;;;;;;;;10.67;8.33;;;;;19.74;60.78;101883.28;5057560;28;45478;-71
2023/06/23 04:26:34;;;;;;;;;8.33;8.33;;;;;20.11;60.77;101933.03;5056989;28;46917;-71
2023/06/23 04:29:04;;;;;;;;;9.00;7.00;;;;;19.69;60.40;101854.13;5038049;28;45861;-70
2023/06/23 04:31:32;;;;;;;;;12.33;10.33;;;;;20.15;60.66;101918.97;5056837;28;45490;-70
2023/06/23 04:33:58;;;;;;;;;11.33;11.33;;;;;20.08;60.94;101909.06;5038710;28;45695;-71
2023/06/23 04:36:29;;;;;;;;;12.33;10.67;;;;;20.18;60.77;101926.72;5056959;28;45692;-69
2023/06/23 04:39:08;;;;;;;;;10.33;10.00;;;;;20.24;60.88;101928.72;5053614;28;45396;-70
2023/06/23 04:41:40;;;;;;;;;8.67;8.67;;;;;19.92;60.91;101867.66;5056187;28;45376;-71
2023/06/23 04:44:09;;;;;;;;;8.67;8.67;;;;;20.27;60.94;101939.16;5035770;28;45395;-71
2023/06/23 04:46:38;;;;;;;;;7.00;7.00;;;;;20.30;60.54;101944.19;5055878;28;46217;-71
2023/06/23 04:49:09;;;;;;;;;11.00;9.67;;;;;20.31;60.55;101937.78;5056632;28;45319;-71
2023/06/23 04:51:40;;;;;;;;;6.33;6.33;;;;;19.92;60.75;101880.31;5038060;28;45514;-71
2023/06/23 04:54:18;;;;;;;;;6.00;6.00;;;;;20.31;60.88;101951.28;5042624;28;45536;-70
2023/06/23 04:56:47;;;;;;;;;4.33;4.33;;;;;20.31;60.82;101945.03;5036111;28;46659;-70
2023/06/23 04:59:15;;;;;;;;;6.33;6.33;;;;;20.34;61.00;101956.31;5063881;28;45418;-72
2023/06/23 05:01:43;;;;;;;;;6.67;6.33;;;;;20.42;61.04;101962.72;5057227;28;45436;-71
2023/06/23 05:04:10;;;;;;;;;7.67;6.67;;;;;20.21;61.15;101923.66;5055527;28;45423;-72
2023/06/23 05:06:37;;;;;;;;;11.00;8.00;;;;;20.47;61.15;101963.03;5074524;28;45897;-70
2023/06/23 05:09:05;;;;;;;;;7.00;7.00;;;;;20.47;61.00;101954.94;5065319;28;45520;-70
2023/06/23 05:11:32;;;;;;;;;4.33;3.33;;;;;20.32;60.80;101920.56;5047250;28;45349;-71
2023/06/23 05:13:58;;;;;;;;;8.67;6.33;;;;;20.53;60.64;101952.34;5056237;28;45485;-71
2023/06/23 05:16:25;;;;;;;;;13.67;5.67;;;;;20.60;60.32;101957.88;5038262;28;46718;-70
2023/06/23 05:18:53;;;;;;;;;7.33;7.33;;;;;20.53;60.62;101949.66;5054867;28;45225;-71
2023/06/23 05:21:23;;;;;;;;;7.67;7.00;;;;;20.64;60.45;101956.50;5055618;28;45468;-72
2023/06/23 05:23:53;;;;;;;;;6.33;6.33;;;;;20.41;60.14;101934.88;5057840;28;45367;-71
2023/06/23 05:26:20;;;;;;;;;7.00;5.67;;;;;20.75;60.22;101974.16;5056029;28;46598;-71
2023/06/23 05:28:48;;;;;;;;;5.00;5.00;;;;;20.72;60.09;101979.91;5054590;28;45325;-71
2023/06/23 05:31:14;;;;;;;;;6.67;5.33;;;;;20.78;59.96;101979.19;5054484;28;45313;-70
2023/06/23 05:33:43;;;;;;;;;8.00;6.00;;;;;20.70;59.76;101963.88;5046412;28;45341;-70
2023/06/23 05:36:11;;;;;;;;;7.33;6.00;;;;;20.83;59.74;101979.50;5035093;28;46673;-70
2023/06/23 05:38:39;;;;;;;;;9.00;7.33;;;;;20.81;59.68;101990.47;5017720;28;45590;-71
2023/06/23 05:41:07;;;;;;;;;8.67;5.33;;;;;20.76;59.91;101976.66;5059219;28;45239;-70
2023/06/23 05:43:32;;;;;;;;;5.33;5.33;;;;;20.83;59.64;101969.53;5079933;27;45362;-70
2023/06/23 05:46:02;;;;;;;;;7.33;6.00;;;;;20.89;59.82;101976.06;5048911;28;46292;-71
2023/06/23 05:48:37;;;;;;;;;6.00;6.00;;;;;20.96;59.66;101975.13;5059184;28;45328;-70
2023/06/23 05:51:08;;;;;;;;;6.00;5.00;;;;;21.34;58.41;101977.88;5059354;28;45372;-72
2023/06/23 05:53:36;;;;;;;;;7.00;6.00;;;;;21.73;58.01;101930.75;5058022;28;45264;-70
2023/06/23 05:56:17;;;;;;;;;7.00;7.00;;;;;22.81;55.71;101984.06;5058839;28;45744;-71
2023/06/23 05:58:52;;;;;;;;;6.00;6.00;;;;;23.27;53.98;101979.91;5059360;28;45186;-69
2023/06/23 06:01:20;;;;;;;;;6.00;5.00;;;;;23.63;53.40;101985.19;5059021;28;45293;-70
2023/06/23 06:03:52;;;;;;;;;7.33;7.33;;;;;24.15;51.75;101993.78;5059052;28;45249;-70
2023/06/23 06:06:20;;;;;;;;;6.33;6.00;;;;;24.25;50.91;101893.69;5058765;28;47088;-70
2023/06/23 06:08:47;;;;;;;;;12.00;9.67;;;;;25.46;49.34;101986.88;5053270;28;45354;-69
2023/06/23 06:11:16;;;;;;;;;6.00;6.00;;;;;25.86;47.20;101935.88;5046327;28;45301;-71
2023/06/23 06:13:45;;;;;;;;;7.33;7.00;;;;;26.74;46.12;101979.63;5045935;28;45533;-71
2023/06/23 06:16:13;;;;;;;;;9.00;8.00;;;;;27.33;44.55;101982.94;5047053;28;45783;-71
2023/06/23 06:18:38;;;;;;;;;9.33;8.00;;;;;27.62;43.63;101940.38;5057848;28;45325;-71
2023/06/23 06:21:07;;;;;;;;;11.00;9.33;;;;;28.50;41.91;101995.44;5052869;28;45932;-71
2023/06/23 06:23:33;;;;;;;;;8.00;8.00;;;;;28.95;40.96;101979.38;5041488;28;45482;-72
2023/06/23 06:26:01;;;;;;;;;13.33;11.67;;;;;28.68;40.00;101852.25;5039755;28;47117;-70
2023/06/23 06:28:27;;;;;;;;;6.33;6.33;;;;;29.96;39.44;101991.84;5038413;28;45349;-70
2023/06/23 06:30:56;;;;;;;;;5.00;5.00;;;;;30.50;38.38;101992.38;5038429;28;45605;-71
2023/06/23 06:33:23;;;;;;;;;8.33;7.33;;;;;30.92;37.18;101992.03;5020874;28;45695;-70
2023/06/23 06:35:51;;;;;;;;;9.00;8.00;;;;;31.21;36.37;101979.06;5038439;28;46671;-70
2023/06/23 06:38:17;;;;;;;;;9.67;9.67;;;;;31.50;36.13;101973.44;5037915;28;45425;-71
2023/06/23 06:40:46;;;;;;;;;8.00;8.00;;;;;31.89;35.26;101985.25;5038262;28;45487;-71
2023/06/23 06:43:12;;;;;;;;;6.33;6.33;;;;;32.13;34.16;101953.59;5036687;28;45682;-71
2023/06/23 06:45:37;;;;;;;;;6.33;6.33;;;;;32.54;34.63;101984.34;5068634;28;45748;-71
2023/06/23 06:48:04;;;;;;;;;13.00;9.67;;;;;32.90;34.05;102000.13;5050603;28;45443;-74
2023/06/23 06:50:31;;;;;;;;;6.33;5.00;;;;;33.33;33.56;101995.50;5041513;28;45301;-71
2023/06/23 06:52:57;;;;;;;;;7.00;7.00;;;;;33.73;31.81;101989.38;5067245;28;45701;-70
2023/06/23 06:55:23;;;;;;;;;5.67;5.67;;;;;33.98;32.25;101990.59;5057644;28;46977;-70
2023/06/23 06:57:49;;;;;;;;;9.33;8.67;;;;;34.35;31.29;101988.50;5057760;28;45427;-71
2023/06/23 07:00:19;;;;;;;;;9.00;9.00;;;;;34.46;31.04;101992.13;5057106;28;45606;-70
2023/06/23 07:02:45;;;;;;;;;5.00;5.00;;;;;34.61;30.59;101953.44;5058197;28;45531;-71
2023/06/23 07:05:12;;;;;;;;;7.00;7.00;;;;;35.02;29.84;101989.38;5039324;28;47660;-70
2023/06/23 07:07:37;;;;;;;;;6.67;6.67;;;;;35.15;29.10;101991.59;5057808;28;45339;-69
2023/06/23 07:10:04;;;;;;;;;5.67;5.67;;;;;35.24;29.38;101978.88;5058196;28;45277;-70
2023/06/23 07:12:31;;;;;;;;;6.00;6.00;;;;;35.44;29.07;101980.75;5057889;28;46266;-69
2023/06/23 07:14:56;;;;;;;;;6.00;5.00;;;;;35.76;28.90;101985.09;5039532;28;46595;-70
2023/06/23 07:17:22;;;;;;;;;7.00;7.00;;;;;35.89;28.50;101971.50;5056491;28;45232;-70
2023/06/23 07:19:47;;;;;;;;;8.00;8.00;;;;;36.23;28.77;101967.97;5056959;28;45226;-71
2023/06/23 07:22:13;;;;;;;;;7.67;7.67;;;;;36.38;28.23;101973.44;5039706;28;45553;-70
2023/06/23 07:24:38;;;;;;;;;12.00;10.67;;;;;36.45;27.38;101957.34;5057124;28;47837;-70
2023/06/23 07:27:04;;;;;;;;;6.33;6.33;;;;;36.74;27.04;101962.91;5038517;28;46218;-75
2023/06/23 07:29:30;;;;;;;;;8.00;8.00;;;;;36.75;27.00;101959.00;5067537;28;45459;-70
2023/06/23 07:31:55;;;;;;;;;5.33;5.33;;;;;36.55;26.85;101959.19;5059031;28;45274;-71
2023/06/23 07:34:22;;;;;;;;;8.33;8.00;;;;;36.69;26.76;101973.22;4999156;27;46671;-70
2023/06/23 07:36:47;;;;;;;;;13.67;12.00;;;;;36.87;26.91;101968.94;5002239;28;45586;-70
2023/06/23 07:39:12;;;;;;;;;6.33;5.00;;;;;36.92;26.45;101972.47;5012384;28;45243;-70
2023/06/23 07:41:38;;;;;;;;;7.33;6.33;;;;;37.05;26.15;101948.78;5014767;28;45553;-70
2023/06/23 07:44:04;;;;;;;;;9.67;8.67;;;;;37.31;26.91;101972.38;5028435;28;45480;-68
2023/06/23 07:46:30;;;;;;;;;7.00;5.00;;;;;37.47;25.91;101967.47;5022370;28;45263;-69
2023/06/23 07:48:55;;;;;;;;;9.33;8.00;;;;;37.44;25.93;101943.94;4999913;28;45595;-71
2023/06/23 07:51:21;;;;;;;;;9.33;7.33;;;;;37.86;26.38;101974.78;5004176;28;45452;-70
2023/06/23 07:53:46;;;;;;;;;6.33;6.33;;;;;37.99;25.08;101977.63;5029320;28;46738;-70
2023/06/23 07:56:12;;;;;;;;;6.00;6.00;;;;;38.03;24.88;101977.84;5008756;28;45544;-70
2023/06/23 07:58:41;;;;;;;;;10.67;8.67;;;;;37.93;24.81;101958.59;4981563;28;45513;-74
2023/06/23 08:01:07;;;;;;;;;7.00;7.00;;;;;37.90;24.86;101973.06;5004159;28;45591;-70
2023/06/23 08:03:32;;;;;;;;;7.00;6.33;;;;;37.93;24.70;101978.00;5013762;28;45978;-70
2023/06/23 08:05:58;;;;;;;;;10.00;7.33;;;;;37.85;25.11;101985.06;5006740;28;45454;-69
2023/06/23 08:08:23;;;;;;;;;6.33;5.00;;;;;37.53;25.13;101932.16;5004886;28;45357;-68
2023/06/23 08:10:48;;;;;;;;;3.33;3.33;;;;;37.46;25.25;101974.16;4997052;28;45561;-72
2023/06/23 08:13:14;;;;;;;;;2.67;2.33;;;;;36.88;26.51;101982.50;5003342;28;54448;-70
2023/06/23 08:15:40;;;;;;;;;7.00;6.00;;;;;36.19;26.50;101998.16;5012227;28;45429;-75
2023/06/23 08:18:06;;;;;;;;;3.67;3.33;;;;;35.61;27.41;101995.09;5021890;28;45481;-70
2023/06/23 08:20:31;;;;;;;;;10.00;8.67;;;;;34.91;27.87;101979.47;5011371;28;45568;-70
2023/06/23 08:22:56;;;;;;;;;5.00;5.00;;;;;34.58;29.31;102012.00;5015961;28;45632;-69
2023/06/23 08:25:22;;;;;;;;;5.00;5.00;;;;;34.11;29.00;102006.66;5002250;28;48561;-69
2023/06/23 08:27:47;;;;;;;;;4.67;4.67;;;;;33.64;29.39;101998.41;5001097;28;53845;-69
2023/06/23 08:30:14;;;;;;;;;6.67;4.33;;;;;33.32;30.33;102015.88;5008151;28;45479;-69
2023/06/23 08:32:40;;;;;;;;;1.67;1.67;;;;;32.68;30.50;101966.28;5002540;28;46552;-68
2023/06/23 08:35:05;;;;;;;;;5.00;5.00;;;;;31.78;31.18;101868.78;5014760;28;45307;-71
2023/06/23 08:37:31;;;;;;;;;3.33;3.33;;;;;32.09;31.28;101968.97;5015866;28;45464;-68
2023/06/23 08:39:56;;;;;;;;;5.00;4.67;;;;;32.08;31.67;102022.34;5016022;28;45292;-69
2023/06/23 08:42:22;;;;;;;;;4.67;4.67;;;;;31.40;32.28;101950.19;5006218;28;46702;-67
2023/06/23 08:44:49;;;;;;;;;7.00;5.00;;;;;31.56;32.60;102017.22;5003412;28;45567;-68
2023/06/23 08:47:18;;;;;;;;;16.00;14.33;;;;;31.31;33.41;102016.84;5012567;28;45441;-68
2023/06/23 08:49:45;;;;;;;;;3.33;3.33;;;;;31.18;33.27;102029.00;5004686;28;45390;-69
2023/06/23 08:52:11;;;;;;;;;6.00;5.33;;;;;30.97;33.85;102016.00;5014782;28;46112;-73
2023/06/23 08:54:37;;;;;;;;;6.00;5.00;;;;;30.96;34.21;102037.13;5012605;28;45324;-69
2023/06/23 08:57:04;;;;;;;;;6.33;6.33;;;;;30.87;34.33;102022.16;5007999;28;45467;-70
2023/06/23 08:59:30;;;;;;;;;5.33;5.33;;;;;30.63;33.90;101993.16;5014822;28;45482;-69
2023/06/23 09:01:55;;;;;;;;;11.00;10.00;;;;;30.74;33.79;102034.28;5013868;28;46381;-68
2023/06/23 09:04:20;;;;;;;;;4.00;4.00;;;;;30.69;34.30;102025.13;5016092;28;45329;-67
2023/06/23 09:06:46;;;;;;;;;9.00;7.33;;;;;30.51;34.65;102007.78;5015545;28;45261;-69
2023/06/23 09:09:12;;;;;;;;;8.67;8.67;;;;;30.58;35.17;102032.31;5016285;28;45372;-69
2023/06/23 09:11:37;;;;;;;;;7.00;5.00;;;;;30.51;35.11;102031.63;5015523;28;46087;-70
2023/06/23 09:14:06;;;;;;;;;8.33;7.33;;;;;30.47;35.35;102031.31;5015667;28;45346;-69
2023/06/23 09:16:32;;;;;;;;;5.00;5.00;;;;;30.44;35.75;102029.06;5018025;28;45422;-69
2023/06/23 09:19:00;;;;;;;;;5.67;4.33;;;;;30.42;35.50;102031.19;5008089;28;46928;-69
2023/06/23 09:21:25;;;;;;;;;5.00;5.00;;;;;30.37;35.88;102027.50;4999468;28;45535;-69
2023/06/23 09:24:05;;;;;;;;;3.67;3.67;;;;;30.37;35.44;102043.97;4993703;28;46579;-68
2023/06/23 09:26:52;;;;;;;;;6.00;6.00;;;;;30.31;35.47;102029.34;5006741;28;45534;-70
2023/06/23 09:29:25;;;;;;;;;5.00;5.00;;;;;30.00;35.86;101986.69;5019399;28;45362;-67
2023/06/23 09:31:52;;;;;;;;;4.00;4.00;;;;;30.16;36.02;102020.78;5014973;28;46277;-69
2023/06/23 09:34:26;;;;;;;;;7.00;6.00;;;;;30.16;35.65;102031.75;5017185;28;45587;-68
2023/06/23 09:37:04;;;;;;;;;5.00;5.00;;;;;29.75;35.71;101980.69;5010959;28;45436;-69
2023/06/23 09:39:34;;;;;;;;;9.00;7.00;;;;;30.12;35.91;102036.91;5015343;28;45624;-69
2023/06/23 09:41:59;;;;;;;;;5.00;4.00;;;;;30.13;35.06;102033.09;5011146;28;45916;-69
2023/06/23 09:44:36;;;;;;;;;6.33;6.33;;;;;30.01;34.90;102023.19;5010359;28;45933;-68
2023/06/23 09:47:03;;;;;;;;;8.33;5.33;;;;;29.62;35.34;101966.16;5018822;28;45302;-69
2023/06/23 09:49:29;;;;;;;;;5.33;4.67;;;;;29.97;34.86;102037.38;5000689;28;45481;-69
2023/06/23 09:51:54;;;;;;;;;5.00;5.00;;;;;29.93;35.42;102029.88;5016859;28;46349;-70
2023/06/23 09:54:36;;;;;;;;;8.67;5.33;;;;;29.06;34.93;101899.16;5018127;28;45472;-69
2023/06/23 09:57:12;;;;;;;;;4.67;4.33;;;;;29.76;34.54;102020.75;5018282;28;45421;-68
2023/06/23 09:59:39;;;;;;;;;5.00;3.67;;;;;29.51;35.41;101997.19;5016886;28;45464;-69
2023/06/23 10:02:07;;;;;;;;;6.00;6.00;;;;;29.69;36.28;102023.63;5022552;28;46616;-68
2023/06/23 10:04:32;;;;;;;;;7.00;5.67;;;;;29.62;36.21;102014.66;5035542;28;45286;-71
2023/06/23 10:07:16;;;;;;;;;9.00;8.33;;;;;29.67;36.05;102017.56;5009939;28;45527;-68
2023/06/23 10:09:49;;;;;;;;;6.33;5.00;;;;;29.66;35.98;102022.19;5012912;28;45532;-70
2023/06/23 10:12:14;;;;;;;;;5.00;5.00;;;;;29.66;35.93;102027.69;5012941;28;45494;-72
2023/06/23 10:14:40;;;;;;;;;5.00;5.00;;;;;29.63;35.52;102025.41;5008232;28;45575;-70
2023/06/23 10:17:06;;;;;;;;;7.00;6.33;;;;;29.50;35.69;102000.16;5017413;28;45270;-70
2023/06/23 10:19:31;;;;;;;;;3.33;3.33;;;;;29.43;36.05;102002.97;4998851;28;45497;-69
2023/06/23 10:21:57;;;;;;;;;4.50;4.50;;;;;29.20;35.98;101970.94;5017229;28;46536;-70
2023/06/23 10:24:23;;;;;;;;;5.33;4.00;;;;;29.37;36.42;102013.00;4998627;28;45885;-72
2023/06/23 10:26:50;;;;;;;;;5.00;5.00;;;;;29.34;36.76;102012.63;5017097;28;45410;-71
2023/06/23 10:29:18;;;;;;;;;5.00;5.00;;;;;29.30;36.41;102006.81;5017673;28;45540;-70
2023/06/23 10:31:44;;;;;;;;;5.33;5.33;;;;;29.29;35.64;102027.06;5019818;28;45478;-70
2023/06/23 10:34:15;;;;;;;;;7.67;4.33;;;;;29.20;36.23;102005.72;5017222;28;45595;-69
2023/06/23 10:36:43;;;;;;;;;6.67;4.67;;;;;29.18;35.12;102008.69;5017687;28;45459;-69
2023/06/23 10:39:10;;;;;;;;;3.67;3.67;;;;;29.08;34.92;101997.50;5017102;28;46005;-70
2023/06/23 10:41:39;;;;;;;;;5.00;5.00;;;;;28.94;36.10;101998.78;4999380;28;48949;-70
2023/06/23 10:44:05;;;;;;;;;5.67;5.67;;;;;28.56;36.37;101948.00;5017427;28;45398;-72
2023/06/23 10:46:31;;;;;;;;;6.33;5.00;;;;;28.90;36.52;102011.28;5018245;28;45503;-72
2023/06/23 10:48:57;;;;;;;;;6.00;6.00;;;;;28.89;36.10;102001.41;5018123;28;45503;-71
2023/06/23 10:51:24;;;;;;;;;6.00;5.00;;;;;28.89;35.38;102004.16;4999714;28;48542;-70
2023/06/23 10:53:55;;;;;;;;;4.33;4.33;;;;;28.88;35.41;102007.97;5016942;28;45561;-71
2023/06/23 10:56:42;;;;;;;;;6.33;5.00;;;;;28.84;35.37;102010.31;5017644;28;45423;-71
2023/06/23 10:59:29;;;;;;;;;6.00;6.00;;;;;28.81;35.52;102004.44;5017193;28;45389;-71
2023/06/23 11:02:04;;;;;;;;;8.00;7.00;;;;;28.83;35.41;102005.03;5016594;28;45722;-70
2023/06/23 11:04:30;;;;;;;;;6.33;5.00;;;;;28.86;35.30;102015.56;5017529;28;45490;-70
2023/06/23 11:07:10;;;;;;;;;10.33;9.00;;;;;28.86;35.67;102013.66;5015841;28;45322;-70
2023/06/23 11:09:55;;;;;;;;;5.67;5.67;;;;;28.85;35.99;102008.41;4999934;28;45306;-69
2023/06/23 11:12:32;;;;;;;;;3.67;3.67;;;;;28.83;35.62;102007.78;5016735;28;45576;-71
2023/06/23 11:15:16;;;;;;;;;4.67;4.67;;;;;28.79;36.41;102000.03;5017142;28;45472;-70
2023/06/23 11:17:59;;;;;;;;;8.00;6.00;;;;;28.81;37.24;102005.28;5017535;28;45361;-70
2023/06/23 11:20:25;;;;;;;;;6.33;6.33;;;;;28.84;35.83;102006.75;5000080;28;45531;-70
2023/06/23 11:23:00;;;;;;;;;3.00;3.00;;;;;28.70;35.28;102006.94;5016794;28;46627;-71
2023/06/23 11:25:27;;;;;;;;;6.00;6.00;;;;;28.64;36.23;101996.94;4999831;28;45437;-69
2023/06/23 11:28:33;;;;;;;;;7.00;5.33;;;;;28.69;36.26;101998.97;5017570;28;45310;-68
2023/06/23 11:31:04;;;;;;;;;8.00;6.00;;;;;28.70;36.87;101998.72;5015938;28;45609;-70